Tallahassee, FL

1:51 AM EST on February 27, 2017 (GMT -0500)
Hartsfield Elementary School WeatherSTEM | | Change Station

Elev 203 ft 30.43 °N, 84.26 °W | Updated 41 seconds ago

Clear
Clear
55.7 °F
Feels Like 55.7 °F
N
2.0
Wind Variable Wind from SSE

Today
High -- | Low -- °F
--% Chance of Precip.
Yesterday
High -- | Low -- °F
Precip. -- in
Pressure 30.21 in
Visibility 10.0 miles
Clouds Clear
Dew Point 27 °F
Humidity 33%
Rainfall 0.00 in
Snow Depth Not available.
7:05 AM 6:34 PM
New Moon, 1% visible
METAR KTLH 270553Z AUTO 10008KT 10SM CLR 12/00 A3021 RMK AO2 SLP230 T01220000 10189 20067 50000
Pressure 30.21 in
Visibility 10.0 miles
Clouds Clear
Dew Point 27 °F
Humidity 33%
Rainfall 0.00 in
Snow Depth Not available.
7:05 AM 6:34 PM
New Moon, 1% visible
METAR KTLH 270553Z AUTO 10008KT 10SM CLR 12/00 A3021 RMK AO2 SLP230 T01220000 10189 20067 50000

Get Your Daily Forecast Email!

Thanks for signing up!

Be on the lookout for a verification email in your inbox.

You'll start receiving the daily forecast at 8 AM.

×

10-Day Weather Forecast

Almanac

Astronomy

Feb. 27, 2017 Rise Set
Actual Time
Civil Twilight
Nautical Twilight
Astronomical Twilight
Moon
Length of Visible Light
Length of Day
Tomorrow will be .
, % of the Moon is Illuminated

Today's Extremes

State Highs State Lows

Community

WunderPhotos

Upload Photos

1,962,540 photos uploaded!

WunderBlog® & News

Nearby

Air Quality

  Air Quality AQ Index Pollutant
Not available.

Snow Depth

Station Depth Elevation

Earthquake Activity

City Distance Mag. Time & Date
Minimum magnitude displayed is 2.5.

Coastal Water Temperatures

Place Temperature

Stations

Nearby Weather Stations

Station Location Temp. Windchill Dew Point Humidity Wind Precip. Elev Updated Type
                   

Watches & Warnings

There are currently no watches in effect.